sensor_id;sensor_type;location;lat;lon;timestamp;P1;durP1;ratioP1;P2;durP2;ratioP2
37477;SDS011;23334;54.316;10.182;2023-06-19T00:02:08;8.17;;;6.00;;
37477;SDS011;23334;54.316;10.182;2023-06-19T00:04:34;9.20;;;6.87;;
37477;SDS011;23334;54.316;10.182;2023-06-19T00:07:00;9.43;;;7.10;;
37477;SDS011;23334;54.316;10.182;2023-06-19T00:09:26;10.43;;;7.23;;
37477;SDS011;23334;54.316;10.182;2023-06-19T00:11:52;6.30;;;5.70;;
37477;SDS011;23334;54.316;10.182;2023-06-19T00:14:18;6.40;;;5.80;;
37477;SDS011;23334;54.316;10.182;2023-06-19T00:16:43;7.83;;;6.50;;
37477;SDS011;23334;54.316;10.182;2023-06-19T00:19:09;7.33;;;6.63;;
37477;SDS011;23334;54.316;10.182;2023-06-19T00:21:36;7.00;;;6.30;;
37477;SDS011;23334;54.316;10.182;2023-06-19T00:24:03;9.00;;;6.27;;
37477;SDS011;23334;54.316;10.182;2023-06-19T00:26:29;8.40;;;6.10;;
37477;SDS011;23334;54.316;10.182;2023-06-19T00:28:54;6.57;;;5.97;;
37477;SDS011;23334;54.316;10.182;2023-06-19T00:31:20;8.03;;;5.83;;
37477;SDS011;23334;54.316;10.182;2023-06-19T00:33:46;7.10;;;6.40;;
37477;SDS011;23334;54.316;10.182;2023-06-19T00:36:16;7.27;;;6.63;;
37477;SDS011;23334;54.316;10.182;2023-06-19T00:38:49;7.40;;;6.60;;
37477;SDS011;23334;54.316;10.182;2023-06-19T00:41:15;6.90;;;6.00;;
37477;SDS011;23334;54.316;10.182;2023-06-19T00:43:41;6.60;;;6.00;;
37477;SDS011;23334;54.316;10.182;2023-06-19T00:46:07;11.93;;;5.67;;
37477;SDS011;23334;54.316;10.182;2023-06-19T00:48:34;9.37;;;6.57;;
37477;SDS011;23334;54.316;10.182;2023-06-19T00:50:59;7.63;;;6.00;;
37477;SDS011;23334;54.316;10.182;2023-06-19T00:53:25;7.77;;;6.40;;
37477;SDS011;23334;54.316;10.182;2023-06-19T00:55:51;7.57;;;6.13;;
37477;SDS011;23334;54.316;10.182;2023-06-19T00:58:19;8.27;;;7.13;;
37477;SDS011;23334;54.316;10.182;2023-06-19T01:00:45;7.57;;;6.47;;
37477;SDS011;23334;54.316;10.182;2023-06-19T01:03:12;6.63;;;5.93;;
37477;SDS011;23334;54.316;10.182;2023-06-19T01:05:38;6.80;;;6.10;;
37477;SDS011;23334;54.316;10.182;2023-06-19T01:08:05;6.40;;;5.80;;
37477;SDS011;23334;54.316;10.182;2023-06-19T01:10:39;6.97;;;6.20;;
37477;SDS011;23334;54.316;10.182;2023-06-19T01:13:12;7.77;;;6.43;;
37477;SDS011;23334;54.316;10.182;2023-06-19T01:15:49;6.60;;;6.00;;
37477;SDS011;23334;54.316;10.182;2023-06-19T01:18:15;8.43;;;6.90;;
37477;SDS011;23334;54.316;10.182;2023-06-19T01:20:42;7.03;;;6.33;;
37477;SDS011;23334;54.316;10.182;2023-06-19T01:23:08;8.27;;;6.60;;
37477;SDS011;23334;54.316;10.182;2023-06-19T01:25:34;8.23;;;6.70;;
37477;SDS011;23334;54.316;10.182;2023-06-19T01:28:00;7.00;;;6.37;;
37477;SDS011;23334;54.316;10.182;2023-06-19T01:30:29;6.90;;;6.20;;
37477;SDS011;23334;54.316;10.182;2023-06-19T01:32:59;7.73;;;6.47;;
37477;SDS011;23334;54.316;10.182;2023-06-19T01:35:36;8.50;;;6.60;;
37477;SDS011;23334;54.316;10.182;2023-06-19T01:38:06;7.57;;;6.30;;
37477;SDS011;23334;54.316;10.182;2023-06-19T01:40:32;6.23;;;5.73;;
37477;SDS011;23334;54.316;10.182;2023-06-19T01:43:00;6.90;;;6.20;;
37477;SDS011;23334;54.316;10.182;2023-06-19T01:45:29;6.43;;;5.90;;
37477;SDS011;23334;54.316;10.182;2023-06-19T01:47:55;7.97;;;6.53;;
37477;SDS011;23334;54.316;10.182;2023-06-19T01:50:22;6.63;;;6.03;;
37477;SDS011;23334;54.316;10.182;2023-06-19T01:52:48;6.80;;;6.10;;
37477;SDS011;23334;54.316;10.182;2023-06-19T01:55:15;6.27;;;5.77;;
37477;SDS011;23334;54.316;10.182;2023-06-19T01:57:40;8.27;;;6.57;;
37477;SDS011;23334;54.316;10.182;2023-06-19T02:00:06;6.87;;;6.27;;
37477;SDS011;23334;54.316;10.182;2023-06-19T02:02:32;6.60;;;5.93;;
37477;SDS011;23334;54.316;10.182;2023-06-19T02:04:58;8.23;;;6.53;;
37477;SDS011;23334;54.316;10.182;2023-06-19T02:07:24;6.53;;;5.93;;
37477;SDS011;23334;54.316;10.182;2023-06-19T02:09:49;7.93;;;6.67;;
37477;SDS011;23334;54.316;10.182;2023-06-19T02:12:15;10.60;;;6.30;;
37477;SDS011;23334;54.316;10.182;2023-06-19T02:14:41;8.10;;;6.60;;
37477;SDS011;23334;54.316;10.182;2023-06-19T02:17:06;7.50;;;6.70;;
37477;SDS011;23334;54.316;10.182;2023-06-19T02:19:32;6.60;;;5.77;;
37477;SDS011;23334;54.316;10.182;2023-06-19T02:21:58;7.37;;;6.37;;
37477;SDS011;23334;54.316;10.182;2023-06-19T02:24:24;9.10;;;6.83;;
37477;SDS011;23334;54.316;10.182;2023-06-19T02:26:50;7.97;;;6.93;;
37477;SDS011;23334;54.316;10.182;2023-06-19T02:29:15;7.83;;;6.73;;
37477;SDS011;23334;54.316;10.182;2023-06-19T02:31:41;6.83;;;6.20;;
37477;SDS011;23334;54.316;10.182;2023-06-19T02:34:07;8.60;;;6.17;;
37477;SDS011;23334;54.316;10.182;2023-06-19T02:36:34;6.47;;;5.50;;
37477;SDS011;23334;54.316;10.182;2023-06-19T02:39:00;6.87;;;6.17;;
37477;SDS011;23334;54.316;10.182;2023-06-19T02:41:26;8.20;;;6.30;;
37477;SDS011;23334;54.316;10.182;2023-06-19T02:43:52;6.53;;;5.93;;
37477;SDS011;23334;54.316;10.182;2023-06-19T02:46:17;6.70;;;6.10;;
37477;SDS011;23334;54.316;10.182;2023-06-19T02:48:43;6.97;;;6.30;;
37477;SDS011;23334;54.316;10.182;2023-06-19T02:51:08;8.60;;;6.43;;
37477;SDS011;23334;54.316;10.182;2023-06-19T02:53:34;6.90;;;6.30;;
37477;SDS011;23334;54.316;10.182;2023-06-19T02:56:00;7.57;;;5.67;;
37477;SDS011;23334;54.316;10.182;2023-06-19T02:58:25;6.00;;;5.40;;
37477;SDS011;23334;54.316;10.182;2023-06-19T03:00:51;7.40;;;6.70;;
37477;SDS011;23334;54.316;10.182;2023-06-19T03:03:17;6.57;;;5.97;;
37477;SDS011;23334;54.316;10.182;2023-06-19T03:05:43;6.30;;;5.70;;
37477;SDS011;23334;54.316;10.182;2023-06-19T03:08:09;5.83;;;5.33;;
37477;SDS011;23334;54.316;10.182;2023-06-19T03:10:35;6.50;;;5.80;;
37477;SDS011;23334;54.316;10.182;2023-06-19T03:13:01;5.97;;;5.40;;
37477;SDS011;23334;54.316;10.182;2023-06-19T03:15:28;6.40;;;5.87;;
37477;SDS011;23334;54.316;10.182;2023-06-19T03:17:53;6.27;;;5.07;;
37477;SDS011;23334;54.316;10.182;2023-06-19T03:20:19;5.77;;;5.30;;
37477;SDS011;23334;54.316;10.182;2023-06-19T03:22:45;8.43;;;6.03;;
37477;SDS011;23334;54.316;10.182;2023-06-19T03:25:11;5.90;;;5.27;;
37477;SDS011;23334;54.316;10.182;2023-06-19T03:27:37;7.47;;;5.50;;
37477;SDS011;23334;54.316;10.182;2023-06-19T03:30:03;6.97;;;6.27;;
37477;SDS011;23334;54.316;10.182;2023-06-19T03:32:31;6.10;;;5.50;;
37477;SDS011;23334;54.316;10.182;2023-06-19T03:34:57;7.70;;;6.37;;
37477;SDS011;23334;54.316;10.182;2023-06-19T03:37:23;7.77;;;6.67;;
37477;SDS011;23334;54.316;10.182;2023-06-19T03:39:49;6.00;;;5.50;;
37477;SDS011;23334;54.316;10.182;2023-06-19T03:42:16;8.20;;;6.80;;
37477;SDS011;23334;54.316;10.182;2023-06-19T03:44:41;9.50;;;6.40;;
37477;SDS011;23334;54.316;10.182;2023-06-19T03:47:07;11.97;;;7.10;;
37477;SDS011;23334;54.316;10.182;2023-06-19T03:49:33;8.90;;;6.67;;
37477;SDS011;23334;54.316;10.182;2023-06-19T03:51:58;7.57;;;6.30;;
37477;SDS011;23334;54.316;10.182;2023-06-19T03:54:23;8.53;;;6.37;;
37477;SDS011;23334;54.316;10.182;2023-06-19T03:56:51;11.40;;;6.70;;
37477;SDS011;23334;54.316;10.182;2023-06-19T03:59:16;6.90;;;6.20;;
37477;SDS011;23334;54.316;10.182;2023-06-19T04:01:42;11.27;;;6.43;;
37477;SDS011;23334;54.316;10.182;2023-06-19T04:04:08;7.00;;;6.30;;
37477;SDS011;23334;54.316;10.182;2023-06-19T04:06:35;8.47;;;6.13;;
37477;SDS011;23334;54.316;10.182;2023-06-19T04:09:00;6.37;;;5.77;;
37477;SDS011;23334;54.316;10.182;2023-06-19T04:11:26;5.73;;;5.23;;
37477;SDS011;23334;54.316;10.182;2023-06-19T04:13:52;10.33;;;6.77;;
37477;SDS011;23334;54.316;10.182;2023-06-19T04:16:18;6.70;;;5.93;;
37477;SDS011;23334;54.316;10.182;2023-06-19T04:18:43;8.30;;;6.03;;
37477;SDS011;23334;54.316;10.182;2023-06-19T04:21:09;6.93;;;6.27;;
37477;SDS011;23334;54.316;10.182;2023-06-19T04:23:36;9.07;;;6.40;;
37477;SDS011;23334;54.316;10.182;2023-06-19T04:26:01;7.33;;;5.47;;
37477;SDS011;23334;54.316;10.182;2023-06-19T04:28:27;6.37;;;5.77;;
37477;SDS011;23334;54.316;10.182;2023-06-19T04:30:52;6.23;;;5.57;;
37477;SDS011;23334;54.316;10.182;2023-06-19T04:33:26;6.73;;;6.10;;
37477;SDS011;23334;54.316;10.182;2023-06-19T04:35:52;9.00;;;5.80;;
37477;SDS011;23334;54.316;10.182;2023-06-19T04:38:17;6.20;;;5.70;;
37477;SDS011;23334;54.316;10.182;2023-06-19T04:40:43;6.37;;;5.77;;
37477;SDS011;23334;54.316;10.182;2023-06-19T04:43:09;8.60;;;6.57;;
37477;SDS011;23334;54.316;10.182;2023-06-19T04:45:35;7.33;;;5.90;;
37477;SDS011;23334;54.316;10.182;2023-06-19T04:48:00;7.10;;;5.93;;
37477;SDS011;23334;54.316;10.182;2023-06-19T04:50:29;6.33;;;5.73;;
37477;SDS011;23334;54.316;10.182;2023-06-19T04:52:54;7.20;;;5.53;;
37477;SDS011;23334;54.316;10.182;2023-06-19T04:55:23;6.13;;;5.53;;
37477;SDS011;23334;54.316;10.182;2023-06-19T04:57:50;8.13;;;5.47;;
37477;SDS011;23334;54.316;10.182;2023-06-19T05:00:16;6.70;;;5.93;;
37477;SDS011;23334;54.316;10.182;2023-06-19T05:02:44;11.40;;;6.20;;
37477;SDS011;23334;54.316;10.182;2023-06-19T05:05:11;6.70;;;5.80;;
37477;SDS011;23334;54.316;10.182;2023-06-19T05:07:39;6.17;;;5.60;;
37477;SDS011;23334;54.316;10.182;2023-06-19T05:10:08;9.37;;;6.07;;
37477;SDS011;23334;54.316;10.182;2023-06-19T05:12:38;6.97;;;6.27;;
37477;SDS011;23334;54.316;10.182;2023-06-19T05:15:04;6.33;;;5.73;;
37477;SDS011;23334;54.316;10.182;2023-06-19T05:17:31;6.67;;;5.80;;
37477;SDS011;23334;54.316;10.182;2023-06-19T05:19:57;8.10;;;6.20;;
37477;SDS011;23334;54.316;10.182;2023-06-19T05:22:23;6.57;;;5.90;;
37477;SDS011;23334;54.316;10.182;2023-06-19T05:24:49;8.77;;;6.10;;
37477;SDS011;23334;54.316;10.182;2023-06-19T05:27:14;6.83;;;5.93;;
37477;SDS011;23334;54.316;10.182;2023-06-19T05:29:40;8.50;;;5.87;;
37477;SDS011;23334;54.316;10.182;2023-06-19T05:32:05;6.67;;;6.03;;
37477;SDS011;23334;54.316;10.182;2023-06-19T05:34:31;6.00;;;5.50;;
37477;SDS011;23334;54.316;10.182;2023-06-19T05:36:59;6.97;;;5.80;;
37477;SDS011;23334;54.316;10.182;2023-06-19T05:39:28;11.53;;;5.60;;
37477;SDS011;23334;54.316;10.182;2023-06-19T05:41:54;9.60;;;6.00;;
37477;SDS011;23334;54.316;10.182;2023-06-19T05:44:20;8.93;;;6.37;;
37477;SDS011;23334;54.316;10.182;2023-06-19T05:46:47;19.10;;;5.70;;
37477;SDS011;23334;54.316;10.182;2023-06-19T05:49:15;8.93;;;5.53;;
37477;SDS011;23334;54.316;10.182;2023-06-19T05:51:41;6.03;;;5.43;;
37477;SDS011;23334;54.316;10.182;2023-06-19T05:54:08;8.07;;;6.00;;
37477;SDS011;23334;54.316;10.182;2023-06-19T05:56:34;9.23;;;5.80;;
37477;SDS011;23334;54.316;10.182;2023-06-19T05:59:01;7.80;;;5.93;;
37477;SDS011;23334;54.316;10.182;2023-06-19T06:01:27;6.33;;;5.50;;
37477;SDS011;23334;54.316;10.182;2023-06-19T06:03:53;6.37;;;5.07;;
37477;SDS011;23334;54.316;10.182;2023-06-19T06:06:19;6.50;;;5.90;;
37477;SDS011;23334;54.316;10.182;2023-06-19T06:08:45;10.20;;;5.77;;
37477;SDS011;23334;54.316;10.182;2023-06-19T06:11:10;8.10;;;6.50;;
37477;SDS011;23334;54.316;10.182;2023-06-19T06:13:36;8.23;;;6.40;;
37477;SDS011;23334;54.316;10.182;2023-06-19T06:16:05;6.50;;;5.73;;
37477;SDS011;23334;54.316;10.182;2023-06-19T06:18:32;13.13;;;5.93;;
37477;SDS011;23334;54.316;10.182;2023-06-19T06:20:58;6.20;;;5.60;;
37477;SDS011;23334;54.316;10.182;2023-06-19T06:23:24;8.27;;;6.50;;
37477;SDS011;23334;54.316;10.182;2023-06-19T06:25:50;5.87;;;5.27;;
37477;SDS011;23334;54.316;10.182;2023-06-19T06:28:16;7.00;;;6.07;;
37477;SDS011;23334;54.316;10.182;2023-06-19T06:30:42;8.20;;;6.07;;
37477;SDS011;23334;54.316;10.182;2023-06-19T06:33:09;6.20;;;5.60;;
37477;SDS011;23334;54.316;10.182;2023-06-19T06:35:35;6.53;;;5.93;;
37477;SDS011;23334;54.316;10.182;2023-06-19T06:38:01;6.47;;;5.80;;
37477;SDS011;23334;54.316;10.182;2023-06-19T06:40:27;6.33;;;5.73;;
37477;SDS011;23334;54.316;10.182;2023-06-19T06:42:53;8.77;;;5.53;;
37477;SDS011;23334;54.316;10.182;2023-06-19T06:45:18;6.47;;;5.87;;
37477;SDS011;23334;54.316;10.182;2023-06-19T06:47:44;12.70;;;5.67;;
37477;SDS011;23334;54.316;10.182;2023-06-19T06:50:10;6.57;;;5.87;;
37477;SDS011;23334;54.316;10.182;2023-06-19T06:52:35;9.17;;;6.43;;
37477;SDS011;23334;54.316;10.182;2023-06-19T06:55:02;9.17;;;6.10;;
37477;SDS011;23334;54.316;10.182;2023-06-19T06:57:28;7.37;;;5.80;;
37477;SDS011;23334;54.316;10.182;2023-06-19T06:59:54;6.93;;;5.17;;
37477;SDS011;23334;54.316;10.182;2023-06-19T07:02:19;6.80;;;6.10;;
37477;SDS011;23334;54.316;10.182;2023-06-19T07:04:45;6.50;;;5.90;;
37477;SDS011;23334;54.316;10.182;2023-06-19T07:07:11;6.37;;;5.77;;
37477;SDS011;23334;54.316;10.182;2023-06-19T07:09:36;8.37;;;6.40;;
37477;SDS011;23334;54.316;10.182;2023-06-19T07:12:02;8.70;;;6.20;;
37477;SDS011;23334;54.316;10.182;2023-06-19T07:14:30;9.27;;;5.83;;
37477;SDS011;23334;54.316;10.182;2023-06-19T07:16:55;11.87;;;6.20;;
37477;SDS011;23334;54.316;10.182;2023-06-19T07:19:21;9.33;;;5.90;;
37477;SDS011;23334;54.316;10.182;2023-06-19T07:21:47;8.10;;;6.20;;
37477;SDS011;23334;54.316;10.182;2023-06-19T07:24:15;7.03;;;5.83;;
37477;SDS011;23334;54.316;10.182;2023-06-19T07:26:41;5.90;;;5.40;;
37477;SDS011;23334;54.316;10.182;2023-06-19T07:29:07;7.03;;;6.10;;
37477;SDS011;23334;54.316;10.182;2023-06-19T07:31:33;6.87;;;6.27;;
37477;SDS011;23334;54.316;10.182;2023-06-19T07:33:59;11.53;;;5.83;;
37477;SDS011;23334;54.316;10.182;2023-06-19T07:36:24;10.13;;;6.00;;
37477;SDS011;23334;54.316;10.182;2023-06-19T07:38:49;8.30;;;5.80;;
37477;SDS011;23334;54.316;10.182;2023-06-19T07:41:16;6.60;;;6.00;;
37477;SDS011;23334;54.316;10.182;2023-06-19T07:43:41;6.60;;;6.10;;
37477;SDS011;23334;54.316;10.182;2023-06-19T07:46:08;8.60;;;7.80;;
37477;SDS011;23334;54.316;10.182;2023-06-19T07:48:34;8.20;;;6.17;;
37477;SDS011;23334;54.316;10.182;2023-06-19T07:51:00;9.97;;;6.10;;
37477;SDS011;23334;54.316;10.182;2023-06-19T07:53:27;8.37;;;7.37;;
37477;SDS011;23334;54.316;10.182;2023-06-19T07:55:53;7.20;;;6.00;;
37477;SDS011;23334;54.316;10.182;2023-06-19T07:58:18;7.43;;;6.73;;
37477;SDS011;23334;54.316;10.182;2023-06-19T08:00:44;7.23;;;6.53;;
37477;SDS011;23334;54.316;10.182;2023-06-19T08:03:09;7.63;;;6.87;;
37477;SDS011;23334;54.316;10.182;2023-06-19T08:05:35;8.10;;;6.37;;
37477;SDS011;23334;54.316;10.182;2023-06-19T08:08:00;8.60;;;6.63;;
37477;SDS011;23334;54.316;10.182;2023-06-19T08:10:26;7.67;;;6.83;;
37477;SDS011;23334;54.316;10.182;2023-06-19T08:12:52;10.60;;;7.63;;
37477;SDS011;23334;54.316;10.182;2023-06-19T08:15:18;9.23;;;7.10;;
37477;SDS011;23334;54.316;10.182;2023-06-19T08:17:44;8.53;;;6.90;;
37477;SDS011;23334;54.316;10.182;2023-06-19T08:20:10;10.97;;;8.27;;
37477;SDS011;23334;54.316;10.182;2023-06-19T08:22:35;7.63;;;6.93;;
37477;SDS011;23334;54.316;10.182;2023-06-19T08:25:03;10.73;;;7.97;;
37477;SDS011;23334;54.316;10.182;2023-06-19T08:27:29;10.37;;;8.90;;
37477;SDS011;23334;54.316;10.182;2023-06-19T08:29:55;13.00;;;7.50;;
37477;SDS011;23334;54.316;10.182;2023-06-19T08:32:22;10.73;;;7.90;;
37477;SDS011;23334;54.316;10.182;2023-06-19T08:34:47;9.20;;;7.60;;
37477;SDS011;23334;54.316;10.182;2023-06-19T08:37:13;11.83;;;8.43;;
37477;SDS011;23334;54.316;10.182;2023-06-19T08:39:39;9.00;;;8.10;;
37477;SDS011;23334;54.316;10.182;2023-06-19T08:42:08;18.20;;;8.20;;
37477;SDS011;23334;54.316;10.182;2023-06-19T08:44:37;9.90;;;8.90;;
37477;SDS011;23334;54.316;10.182;2023-06-19T08:47:03;10.50;;;8.23;;
37477;SDS011;23334;54.316;10.182;2023-06-19T08:49:29;8.33;;;7.50;;
37477;SDS011;23334;54.316;10.182;2023-06-19T08:51:56;10.53;;;8.53;;
37477;SDS011;23334;54.316;10.182;2023-06-19T08:54:22;11.37;;;8.90;;
37477;SDS011;23334;54.316;10.182;2023-06-19T08:56:47;12.60;;;9.00;;
37477;SDS011;23334;54.316;10.182;2023-06-19T08:59:14;8.83;;;8.03;;
37477;SDS011;23334;54.316;10.182;2023-06-19T09:01:46;14.00;;;8.37;;
37477;SDS011;23334;54.316;10.182;2023-06-19T09:04:16;14.70;;;8.60;;
37477;SDS011;23334;54.316;10.182;2023-06-19T09:09:18;8.90;;;8.00;;
37477;SDS011;23334;54.316;10.182;2023-06-19T09:11:56;10.43;;;8.90;;
37477;SDS011;23334;54.316;10.182;2023-06-19T09:14:24;9.87;;;8.87;;
37477;SDS011;23334;54.316;10.182;2023-06-19T09:17:00;8.77;;;7.97;;
37477;SDS011;23334;54.316;10.182;2023-06-19T09:19:27;10.63;;;7.93;;
37477;SDS011;23334;54.316;10.182;2023-06-19T09:21:52;9.40;;;8.50;;
37477;SDS011;23334;54.316;10.182;2023-06-19T09:24:18;9.13;;;7.67;;
37477;SDS011;23334;54.316;10.182;2023-06-19T09:26:44;9.43;;;8.50;;
37477;SDS011;23334;54.316;10.182;2023-06-19T09:29:10;8.97;;;8.17;;
37477;SDS011;23334;54.316;10.182;2023-06-19T09:31:37;10.40;;;8.07;;
37477;SDS011;23334;54.316;10.182;2023-06-19T09:34:04;8.93;;;7.80;;
37477;SDS011;23334;54.316;10.182;2023-06-19T09:36:31;8.80;;;7.90;;
37477;SDS011;23334;54.316;10.182;2023-06-19T09:38:57;11.57;;;9.33;;
37477;SDS011;23334;54.316;10.182;2023-06-19T09:41:24;10.60;;;8.40;;
37477;SDS011;23334;54.316;10.182;2023-06-19T09:43:51;12.40;;;7.83;;
37477;SDS011;23334;54.316;10.182;2023-06-19T09:46:25;9.67;;;8.03;;
37477;SDS011;23334;54.316;10.182;2023-06-19T09:48:54;13.10;;;7.87;;
37477;SDS011;23334;54.316;10.182;2023-06-19T09:51:26;9.67;;;8.20;;
37477;SDS011;23334;54.316;10.182;2023-06-19T09:53:55;8.23;;;7.40;;
37477;SDS011;23334;54.316;10.182;2023-06-19T09:56:23;10.53;;;8.13;;
37477;SDS011;23334;54.316;10.182;2023-06-19T09:58:51;8.63;;;7.50;;
37477;SDS011;23334;54.316;10.182;2023-06-19T10:01:19;11.20;;;7.63;;
37477;SDS011;23334;54.316;10.182;2023-06-19T10:03:45;16.23;;;8.80;;
37477;SDS011;23334;54.316;10.182;2023-06-19T10:06:15;12.40;;;8.00;;
37477;SDS011;23334;54.316;10.182;2023-06-19T10:08:43;10.27;;;7.87;;
37477;SDS011;23334;54.316;10.182;2023-06-19T10:11:09;8.90;;;7.77;;
37477;SDS011;23334;54.316;10.182;2023-06-19T10:13:36;7.03;;;6.40;;
37477;SDS011;23334;54.316;10.182;2023-06-19T10:16:05;8.77;;;7.33;;
37477;SDS011;23334;54.316;10.182;2023-06-19T10:18:32;7.70;;;6.97;;
37477;SDS011;23334;54.316;10.182;2023-06-19T10:21:15;11.73;;;8.50;;
37477;SDS011;23334;54.316;10.182;2023-06-19T10:23:54;9.33;;;7.90;;
37477;SDS011;23334;54.316;10.182;2023-06-19T10:26:29;10.07;;;8.33;;
37477;SDS011;23334;54.316;10.182;2023-06-19T10:29:00;13.20;;;8.53;;
37477;SDS011;23334;54.316;10.182;2023-06-19T10:31:26;8.87;;;8.07;;
37477;SDS011;23334;54.316;10.182;2023-06-19T10:33:53;8.50;;;7.80;;
37477;SDS011;23334;54.316;10.182;2023-06-19T10:36:21;11.93;;;8.40;;
37477;SDS011;23334;54.316;10.182;2023-06-19T10:38:48;9.90;;;8.43;;
37477;SDS011;23334;54.316;10.182;2023-06-19T10:41:18;9.97;;;9.03;;
37477;SDS011;23334;54.316;10.182;2023-06-19T10:43:52;15.90;;;9.10;;
37477;SDS011;23334;54.316;10.182;2023-06-19T10:46:21;13.80;;;8.70;;
37477;SDS011;23334;54.316;10.182;2023-06-19T10:48:48;13.83;;;9.10;;
37477;SDS011;23334;54.316;10.182;2023-06-19T10:51:18;11.30;;;9.60;;
37477;SDS011;23334;54.316;10.182;2023-06-19T10:53:43;9.57;;;8.70;;
37477;SDS011;23334;54.316;10.182;2023-06-19T10:56:09;9.50;;;8.60;;
37477;SDS011;23334;54.316;10.182;2023-06-19T10:58:35;9.80;;;8.90;;
37477;SDS011;23334;54.316;10.182;2023-06-19T11:01:01;11.03;;;9.20;;
37477;SDS011;23334;54.316;10.182;2023-06-19T11:03:26;10.40;;;9.30;;
37477;SDS011;23334;54.316;10.182;2023-06-19T11:05:52;9.30;;;8.50;;
37477;SDS011;23334;54.316;10.182;2023-06-19T11:08:19;11.43;;;8.87;;
37477;SDS011;23334;54.316;10.182;2023-06-19T11:10:46;11.40;;;9.93;;
37477;SDS011;23334;54.316;10.182;2023-06-19T11:13:15;10.70;;;9.53;;
37477;SDS011;23334;54.316;10.182;2023-06-19T11:15:42;9.90;;;8.87;;
37477;SDS011;23334;54.316;10.182;2023-06-19T11:18:08;10.27;;;9.33;;
37477;SDS011;23334;54.316;10.182;2023-06-19T11:20:43;10.70;;;9.67;;
37477;SDS011;23334;54.316;10.182;2023-06-19T11:23:14;9.50;;;8.50;;
37477;SDS011;23334;54.316;10.182;2023-06-19T11:25:40;10.67;;;9.40;;
37477;SDS011;23334;54.316;10.182;2023-06-19T11:28:11;10.07;;;9.13;;
37477;SDS011;23334;54.316;10.182;2023-06-19T11:30:38;13.03;;;9.23;;
37477;SDS011;23334;54.316;10.182;2023-06-19T11:33:20;9.40;;;8.60;;
37477;SDS011;23334;54.316;10.182;2023-06-19T11:35:50;11.10;;;9.07;;
37477;SDS011;23334;54.316;10.182;2023-06-19T11:38:20;9.90;;;9.00;;
37477;SDS011;23334;54.316;10.182;2023-06-19T11:40:47;11.50;;;9.40;;
37477;SDS011;23334;54.316;10.182;2023-06-19T11:43:23;10.53;;;9.50;;
37477;SDS011;23334;54.316;10.182;2023-06-19T11:45:52;10.40;;;9.23;;
37477;SDS011;23334;54.316;10.182;2023-06-19T11:48:25;10.97;;;9.43;;
37477;SDS011;23334;54.316;10.182;2023-06-19T11:50:51;10.70;;;8.50;;
37477;SDS011;23334;54.316;10.182;2023-06-19T11:53:18;11.13;;;9.80;;
37477;SDS011;23334;54.316;10.182;2023-06-19T11:55:44;9.83;;;9.00;;
37477;SDS011;23334;54.316;10.182;2023-06-19T11:58:10;10.30;;;9.10;;
37477;SDS011;23334;54.316;10.182;2023-06-19T12:00:36;11.00;;;9.17;;
37477;SDS011;23334;54.316;10.182;2023-06-19T12:03:02;14.57;;;8.80;;
37477;SDS011;23334;54.316;10.182;2023-06-19T12:05:28;10.20;;;9.20;;
37477;SDS011;23334;54.316;10.182;2023-06-19T12:07:54;11.53;;;8.87;;
37477;SDS011;23334;54.316;10.182;2023-06-19T12:10:19;8.93;;;7.93;;
37477;SDS011;23334;54.316;10.182;2023-06-19T12:12:45;8.93;;;8.13;;
37477;SDS011;23334;54.316;10.182;2023-06-19T12:15:10;9.33;;;8.43;;
37477;SDS011;23334;54.316;10.182;2023-06-19T12:17:36;11.37;;;8.37;;
37477;SDS011;23334;54.316;10.182;2023-06-19T12:20:02;10.33;;;8.83;;
37477;SDS011;23334;54.316;10.182;2023-06-19T12:22:31;8.23;;;7.50;;
37477;SDS011;23334;54.316;10.182;2023-06-19T12:24:56;8.80;;;8.00;;
37477;SDS011;23334;54.316;10.182;2023-06-19T12:27:22;9.43;;;8.20;;
37477;SDS011;23334;54.316;10.182;2023-06-19T12:29:48;8.03;;;7.33;;
37477;SDS011;23334;54.316;10.182;2023-06-19T12:32:14;7.83;;;7.00;;
37477;SDS011;23334;54.316;10.182;2023-06-19T12:34:39;8.80;;;8.00;;
37477;SDS011;23334;54.316;10.182;2023-06-19T12:37:07;10.73;;;7.70;;
37477;SDS011;23334;54.316;10.182;2023-06-19T12:39:33;8.10;;;7.43;;
37477;SDS011;23334;54.316;10.182;2023-06-19T12:41:59;11.83;;;8.50;;
37477;SDS011;23334;54.316;10.182;2023-06-19T12:44:25;8.97;;;7.93;;
37477;SDS011;23334;54.316;10.182;2023-06-19T12:46:50;11.73;;;7.80;;
37477;SDS011;23334;54.316;10.182;2023-06-19T12:49:16;8.00;;;7.40;;
37477;SDS011;23334;54.316;10.182;2023-06-19T12:51:42;10.30;;;7.50;;
37477;SDS011;23334;54.316;10.182;2023-06-19T12:54:08;9.07;;;7.70;;
37477;SDS011;23334;54.316;10.182;2023-06-19T12:56:33;7.97;;;7.27;;
37477;SDS011;23334;54.316;10.182;2023-06-19T12:58:59;9.83;;;7.70;;
37477;SDS011;23334;54.316;10.182;2023-06-19T13:01:24;8.80;;;7.30;;
37477;SDS011;23334;54.316;10.182;2023-06-19T13:03:50;10.10;;;6.97;;
37477;SDS011;23334;54.316;10.182;2023-06-19T13:06:16;7.90;;;7.30;;
37477;SDS011;23334;54.316;10.182;2023-06-19T13:08:41;7.30;;;6.60;;
37477;SDS011;23334;54.316;10.182;2023-06-19T13:11:07;7.73;;;6.73;;
37477;SDS011;23334;54.316;10.182;2023-06-19T13:13:33;9.30;;;7.73;;
37477;SDS011;23334;54.316;10.182;2023-06-19T13:15:59;8.00;;;7.27;;
37477;SDS011;23334;54.316;10.182;2023-06-19T13:18:24;8.60;;;7.60;;
37477;SDS011;23334;54.316;10.182;2023-06-19T13:20:50;8.30;;;7.50;;
37477;SDS011;23334;54.316;10.182;2023-06-19T13:23:16;12.60;;;7.43;;
37477;SDS011;23334;54.316;10.182;2023-06-19T13:25:41;7.60;;;6.93;;
37477;SDS011;23334;54.316;10.182;2023-06-19T13:28:07;8.17;;;7.40;;
37477;SDS011;23334;54.316;10.182;2023-06-19T13:30:32;8.50;;;7.60;;
37477;SDS011;23334;54.316;10.182;2023-06-19T13:32:58;8.23;;;7.43;;
37477;SDS011;23334;54.316;10.182;2023-06-19T13:35:23;8.70;;;7.83;;
37477;SDS011;23334;54.316;10.182;2023-06-19T13:37:50;9.27;;;8.43;;
37477;SDS011;23334;54.316;10.182;2023-06-19T13:40:15;8.40;;;7.60;;
37477;SDS011;23334;54.316;10.182;2023-06-19T13:42:41;8.43;;;7.73;;
37477;SDS011;23334;54.316;10.182;2023-06-19T13:45:07;12.10;;;9.00;;
37477;SDS011;23334;54.316;10.182;2023-06-19T13:47:32;10.20;;;9.20;;
37477;SDS011;23334;54.316;10.182;2023-06-19T13:49:58;11.97;;;8.60;;
37477;SDS011;23334;54.316;10.182;2023-06-19T13:52:24;10.40;;;9.50;;
37477;SDS011;23334;54.316;10.182;2023-06-19T13:54:51;14.67;;;9.70;;
37477;SDS011;23334;54.316;10.182;2023-06-19T13:57:17;12.07;;;9.07;;
37477;SDS011;23334;54.316;10.182;2023-06-19T13:59:43;9.97;;;8.97;;
37477;SDS011;23334;54.316;10.182;2023-06-19T14:02:08;9.60;;;8.40;;
37477;SDS011;23334;54.316;10.182;2023-06-19T14:04:36;8.10;;;7.00;;
37477;SDS011;23334;54.316;10.182;2023-06-19T14:07:01;10.93;;;7.80;;
37477;SDS011;23334;54.316;10.182;2023-06-19T14:09:28;7.57;;;6.87;;
37477;SDS011;23334;54.316;10.182;2023-06-19T14:11:55;8.37;;;6.60;;
37477;SDS011;23334;54.316;10.182;2023-06-19T14:14:20;11.73;;;7.70;;
37477;SDS011;23334;54.316;10.182;2023-06-19T14:16:45;8.83;;;6.23;;
37477;SDS011;23334;54.316;10.182;2023-06-19T14:19:11;7.73;;;6.47;;
37477;SDS011;23334;54.316;10.182;2023-06-19T14:21:37;8.87;;;6.37;;
37477;SDS011;23334;54.316;10.182;2023-06-19T14:24:03;6.70;;;5.70;;
37477;SDS011;23334;54.316;10.182;2023-06-19T14:26:29;6.23;;;5.40;;
37477;SDS011;23334;54.316;10.182;2023-06-19T14:28:55;10.03;;;5.53;;
37477;SDS011;23334;54.316;10.182;2023-06-19T14:31:22;5.77;;;5.20;;